Savannah International, GA

8:30 AM EDT on May 05, 2015 (GMT -0400)
Hunter Army Air Field | | Change Station
CLOSE
Current Station
Airport
Location: Savannah Hunter,
Elevation: 43 ft
Nearby Weather Stations

Elev 43 ft 32.01 °N, 81.15 °W | Updated 32 minutes ago

Clear
Clear
66 °F
Feels Like 66 °F
N
1
Wind Variable Wind from NE

Today
High -- | Low -- °F
--% Chance of Precip.
Yesterday
High -- | Low -- °F
Precip. -- in
6:35 AM 8:08 PM
Full, 98% visible
Pressure 30.28 in
Visibility 10.0 miles
Clouds Clear
Dew Point 63 °F
Humidity 91%
Rainfall 0.00 in
Snow Depth Not available.
UV 1 out of 12
Pollen 6.40 out of 12
Air Quality Not available.
Flu Activity Sporadic
METAR KSVN 051158Z AUTO 05001KT 10SM CLR 19/17 A3027 RMK AO2 SLP253 T01880173 10188 20157

More Conditions Fewer Conditions

Pressure 30.28 in
Visibility 10.0 miles
Clouds Clear
Dew Point 63 °F
Humidity 91%
Rainfall 0.00 in
Snow Depth Not available.
UV 1 out of 12
Pollen 6.40 out of 12
Air Quality Not available.
Flu Activity Sporadic
METAR KSVN 051158Z AUTO 05001KT 10SM CLR 19/17 A3027 RMK AO2 SLP253 T01880173 10188 20157

More Conditions Fewer Conditions

Nepal has a long way to go to dig out and rebuild from a devastating earthquake. We have teamed up with several charities and organizations to make contributing to the relief effort as easy as possible.
How you can help: Portlight Strategies | Red Cross

10-Day Weather Forecast

Almanac

Astronomy

May. 05, 2015 Rise Set
Actual Time
Civil Twilight
Nautical Twilight
Astronomical Twilight
Moon
Length of Visible Light
Length of Day
Tomorrow will be .
, % of the Moon is Illuminated

Today's Extremes

State Highs State Lows

Community

WunderPhotos

Upload Photos

1,818,874 photos uploaded!

WunderBlogs® & News

Nearby

Air Quality

  Air Quality AQ Index Pollutant
Not available.

Snow Depth

Station Depth Elevation

Earthquake Activity

City Distance Mag. Time & Date
Minimum magnitude displayed is 2.5.

Coastal Water Temperatures

Place Temperature

Stations

Nearby Weather Stations

Station Location Temp. Windchill Dew Point Humidity Wind Precip. Elev Updated Type